Terminal Aerodrome Forecast
Issued by NWS

Home | Current Version | Previous Version | Text Only | Print | Product List | Glossary On
Versions: 1 2 3 4 5 6 7 8 9 10 11 12 13 14 15 16 17 18 19 20 21 22 23
000
FTUS43 KGRB 272000 AAA
TAFATW
TAF AMD
KATW 272022Z 2720/2818 32008G14KT P6SM SCT025
      TEMPO 2720/2723 BKN025
     FM272300 29003KT P6SM SCT250
     FM280600 VRB03KT P6SM OVC080
     FM281300 18007KT 5SM -SN BR OVC030
     FM281600 17007KT 2SM -SN BR OVC015=

USA.gov is the U.S. government's official web portal to all federal, state and local government web resources and services.